sensor_id;sensor_type;location;lat;lon;timestamp;pressure;altitude;pressure_sealevel;temperature;humidity
34235;BME280;20500;49.856;20.290;2023-02-28T00:00:18;100124.38;;;-1.02;66.09
34235;BME280;20500;49.856;20.290;2023-02-28T00:03:25;100127.14;;;-1.07;65.93
34235;BME280;20500;49.856;20.290;2023-02-28T00:06:29;100127.85;;;-1.10;66.06
34235;BME280;20500;49.856;20.290;2023-02-28T00:09:36;100126.96;;;-1.14;65.89
34235;BME280;20500;49.856;20.290;2023-02-28T00:12:42;100128.02;;;-1.17;66.00
34235;BME280;20500;49.856;20.290;2023-02-28T00:15:48;100129.55;;;-1.19;66.04
34235;BME280;20500;49.856;20.290;2023-02-28T00:19:04;100131.42;;;-1.20;66.15
34235;BME280;20500;49.856;20.290;2023-02-28T00:22:10;100133.64;;;-1.22;66.13
34235;BME280;20500;49.856;20.290;2023-02-28T00:25:16;100133.67;;;-1.26;65.96
34235;BME280;20500;49.856;20.290;2023-02-28T00:28:21;100135.47;;;-1.30;65.98
34235;BME280;20500;49.856;20.290;2023-02-28T00:31:27;100135.36;;;-1.31;66.04
34235;BME280;20500;49.856;20.290;2023-02-28T00:34:34;100134.87;;;-1.32;66.04
34235;BME280;20500;49.856;20.290;2023-02-28T00:37:42;100133.95;;;-1.31;66.17
34235;BME280;20500;49.856;20.290;2023-02-28T00:40:49;100132.86;;;-1.31;66.13
34235;BME280;20500;49.856;20.290;2023-02-28T00:43:55;100134.00;;;-1.32;65.99
34235;BME280;20500;49.856;20.290;2023-02-28T00:46:59;100138.52;;;-1.33;66.16
34235;BME280;20500;49.856;20.290;2023-02-28T00:50:08;100143.02;;;-1.34;66.18
34235;BME280;20500;49.856;20.290;2023-02-28T00:53:15;100148.77;;;-1.35;66.05
34235;BME280;20500;49.856;20.290;2023-02-28T00:56:21;100146.83;;;-1.35;66.10
34235;BME280;20500;49.856;20.290;2023-02-28T00:59:27;100145.84;;;-1.37;65.97
34235;BME280;20500;49.856;20.290;2023-02-28T01:02:32;100143.89;;;-1.40;66.04
34235;BME280;20500;49.856;20.290;2023-02-28T01:05:38;100144.60;;;-1.44;65.93
34235;BME280;20500;49.856;20.290;2023-02-28T01:08:46;100152.04;;;-1.47;65.94
34235;BME280;20500;49.856;20.290;2023-02-28T01:11:50;100149.16;;;-1.50;65.90
34235;BME280;20500;49.856;20.290;2023-02-28T01:14:56;100146.66;;;-1.53;66.01
34235;BME280;20500;49.856;20.290;2023-02-28T01:18:01;100146.86;;;-1.57;66.10
34235;BME280;20500;49.856;20.290;2023-02-28T01:21:09;100146.55;;;-1.61;66.08
34235;BME280;20500;49.856;20.290;2023-02-28T01:24:15;100144.33;;;-1.66;66.33
34235;BME280;20500;49.856;20.290;2023-02-28T01:27:20;100144.71;;;-1.70;66.32
34235;BME280;20500;49.856;20.290;2023-02-28T01:30:26;100146.18;;;-1.75;66.32
34235;BME280;20500;49.856;20.290;2023-02-28T01:33:31;100147.82;;;-1.79;66.17
34235;BME280;20500;49.856;20.290;2023-02-28T01:36:37;100147.42;;;-1.82;66.47
34235;BME280;20500;49.856;20.290;2023-02-28T01:39:42;100144.32;;;-1.84;66.39
34235;BME280;20500;49.856;20.290;2023-02-28T01:42:48;100142.79;;;-1.85;66.41
34235;BME280;20500;49.856;20.290;2023-02-28T01:45:53;100140.61;;;-1.88;66.62
34235;BME280;20500;49.856;20.290;2023-02-28T01:49:03;100136.23;;;-1.92;66.53
34235;BME280;20500;49.856;20.290;2023-02-28T01:52:12;100134.08;;;-1.96;66.49
34235;BME280;20500;49.856;20.290;2023-02-28T01:55:23;100128.71;;;-2.06;66.21
34235;BME280;20500;49.856;20.290;2023-02-28T01:58:33;100126.50;;;-2.19;66.19
34235;BME280;20500;49.856;20.290;2023-02-28T02:01:40;100126.65;;;-2.26;66.31
34235;BME280;20500;49.856;20.290;2023-02-28T02:04:46;100128.61;;;-2.29;66.43
34235;BME280;20500;49.856;20.290;2023-02-28T02:07:58;100132.02;;;-2.33;66.61
34235;BME280;20500;49.856;20.290;2023-02-28T02:11:09;100132.89;;;-2.33;66.67
34235;BME280;20500;49.856;20.290;2023-02-28T02:14:30;100131.97;;;-2.32;66.71
34235;BME280;20500;49.856;20.290;2023-02-28T02:17:41;100127.88;;;-2.32;66.67
34235;BME280;20500;49.856;20.290;2023-02-28T02:21:24;100121.13;;;-2.35;66.70
34235;BME280;20500;49.856;20.290;2023-02-28T02:28:29;100119.91;;;-2.44;66.72
34235;BME280;20500;49.856;20.290;2023-02-28T02:32:11;100121.46;;;-2.47;66.73
34235;BME280;20500;49.856;20.290;2023-02-28T02:35:26;100119.46;;;-2.49;66.73
34235;BME280;20500;49.856;20.290;2023-02-28T02:38:37;100116.02;;;-2.52;66.81
34235;BME280;20500;49.856;20.290;2023-02-28T02:41:49;100105.67;;;-2.55;66.82
34235;BME280;20500;49.856;20.290;2023-02-28T02:45:03;100105.26;;;-2.64;66.79
34235;BME280;20500;49.856;20.290;2023-02-28T02:48:13;100106.39;;;-2.69;66.99
34235;BME280;20500;49.856;20.290;2023-02-28T02:51:23;100101.40;;;-2.69;67.13
34235;BME280;20500;49.856;20.290;2023-02-28T02:54:33;100099.90;;;-2.67;67.25
34235;BME280;20500;49.856;20.290;2023-02-28T02:57:45;100101.88;;;-2.64;67.15
34235;BME280;20500;49.856;20.290;2023-02-28T03:00:54;100106.42;;;-2.66;67.14
34235;BME280;20500;49.856;20.290;2023-02-28T03:04:05;100107.16;;;-2.71;67.25
34235;BME280;20500;49.856;20.290;2023-02-28T03:07:13;100111.05;;;-2.74;67.17
34235;BME280;20500;49.856;20.290;2023-02-28T03:10:36;100112.59;;;-2.76;67.33
34235;BME280;20500;49.856;20.290;2023-02-28T03:13:54;100111.40;;;-2.78;67.31
34235;BME280;20500;49.856;20.290;2023-02-28T03:17:17;100114.50;;;-2.80;67.35
34235;BME280;20500;49.856;20.290;2023-02-28T03:20:36;100112.27;;;-2.81;67.57
34235;BME280;20500;49.856;20.290;2023-02-28T03:23:48;100115.89;;;-2.82;67.71
34235;BME280;20500;49.856;20.290;2023-02-28T03:27:02;100119.85;;;-2.84;67.37
34235;BME280;20500;49.856;20.290;2023-02-28T03:30:13;100118.35;;;-2.89;67.48
34235;BME280;20500;49.856;20.290;2023-02-28T03:33:25;100122.77;;;-2.92;67.73
34235;BME280;20500;49.856;20.290;2023-02-28T03:36:37;100129.15;;;-2.92;67.69
34235;BME280;20500;49.856;20.290;2023-02-28T03:39:51;100130.61;;;-2.89;67.72
34235;BME280;20500;49.856;20.290;2023-02-28T03:43:01;100132.45;;;-2.95;67.83
34235;BME280;20500;49.856;20.290;2023-02-28T03:46:12;100138.84;;;-2.99;67.88
34235;BME280;20500;49.856;20.290;2023-02-28T03:49:22;100141.86;;;-3.03;67.70
34235;BME280;20500;49.856;20.290;2023-02-28T03:52:31;100145.34;;;-3.09;67.72
34235;BME280;20500;49.856;20.290;2023-02-28T03:55:41;100147.42;;;-3.15;67.93
34235;BME280;20500;49.856;20.290;2023-02-28T03:58:54;100149.73;;;-3.20;67.98
34235;BME280;20500;49.856;20.290;2023-02-28T04:02:01;100148.98;;;-3.22;67.94
34235;BME280;20500;49.856;20.290;2023-02-28T04:05:08;100148.84;;;-3.27;68.04
34235;BME280;20500;49.856;20.290;2023-02-28T04:08:15;100147.89;;;-3.30;68.10
34235;BME280;20500;49.856;20.290;2023-02-28T04:11:23;100151.74;;;-3.33;68.15
34235;BME280;20500;49.856;20.290;2023-02-28T04:14:34;100152.11;;;-3.36;68.14
34235;BME280;20500;49.856;20.290;2023-02-28T04:17:38;100156.66;;;-3.43;68.25
34235;BME280;20500;49.856;20.290;2023-02-28T04:20:45;100153.00;;;-3.45;68.43
34235;BME280;20500;49.856;20.290;2023-02-28T04:23:51;100154.23;;;-3.45;68.47
34235;BME280;20500;49.856;20.290;2023-02-28T04:26:56;100156.11;;;-3.47;68.39
34235;BME280;20500;49.856;20.290;2023-02-28T04:30:04;100158.80;;;-3.48;68.57
34235;BME280;20500;49.856;20.290;2023-02-28T04:33:10;100161.40;;;-3.51;68.54
34235;BME280;20500;49.856;20.290;2023-02-28T04:36:15;100161.19;;;-3.54;68.59
34235;BME280;20500;49.856;20.290;2023-02-28T04:39:23;100161.17;;;-3.53;68.64
34235;BME280;20500;49.856;20.290;2023-02-28T04:42:29;100163.98;;;-3.53;68.63
34235;BME280;20500;49.856;20.290;2023-02-28T04:45:40;100167.77;;;-3.54;68.78
34235;BME280;20500;49.856;20.290;2023-02-28T04:48:46;100167.96;;;-3.55;68.87
34235;BME280;20500;49.856;20.290;2023-02-28T04:51:53;100169.40;;;-3.55;68.91
34235;BME280;20500;49.856;20.290;2023-02-28T04:55:00;100164.30;;;-3.56;68.84
34235;BME280;20500;49.856;20.290;2023-02-28T04:58:04;100162.28;;;-3.58;68.92
34235;BME280;20500;49.856;20.290;2023-02-28T05:01:23;100160.95;;;-3.61;68.99
34235;BME280;20500;49.856;20.290;2023-02-28T05:04:29;100164.42;;;-3.63;68.91
34235;BME280;20500;49.856;20.290;2023-02-28T05:07:39;100166.23;;;-3.64;69.03
34235;BME280;20500;49.856;20.290;2023-02-28T05:10:45;100165.77;;;-3.66;69.06
34235;BME280;20500;49.856;20.290;2023-02-28T05:13:52;100168.70;;;-3.68;69.07
34235;BME280;20500;49.856;20.290;2023-02-28T05:16:58;100170.33;;;-3.73;69.13
34235;BME280;20500;49.856;20.290;2023-02-28T05:20:06;100176.52;;;-3.76;69.09
34235;BME280;20500;49.856;20.290;2023-02-28T05:23:21;100175.62;;;-3.80;69.17
34235;BME280;20500;49.856;20.290;2023-02-28T05:26:28;100182.13;;;-3.83;69.27
34235;BME280;20500;49.856;20.290;2023-02-28T05:29:35;100186.23;;;-3.83;69.28
34235;BME280;20500;49.856;20.290;2023-02-28T05:32:51;100186.06;;;-3.84;69.18
34235;BME280;20500;49.856;20.290;2023-02-28T05:35:57;100190.42;;;-3.86;69.28
34235;BME280;20500;49.856;20.290;2023-02-28T05:39:04;100195.85;;;-3.89;69.38
34235;BME280;20500;49.856;20.290;2023-02-28T05:42:10;100199.33;;;-3.92;69.35
34235;BME280;20500;49.856;20.290;2023-02-28T05:45:15;100202.95;;;-3.94;69.39
34235;BME280;20500;49.856;20.290;2023-02-28T05:48:22;100207.67;;;-3.96;69.50
34235;BME280;20500;49.856;20.290;2023-02-28T05:51:26;100214.85;;;-3.99;69.52
34235;BME280;20500;49.856;20.290;2023-02-28T05:54:33;100220.12;;;-3.97;69.58
34235;BME280;20500;49.856;20.290;2023-02-28T05:57:39;100222.88;;;-3.95;69.60
34235;BME280;20500;49.856;20.290;2023-02-28T06:00:44;100227.30;;;-3.95;69.66
34235;BME280;20500;49.856;20.290;2023-02-28T06:03:50;100227.80;;;-3.94;69.77
34235;BME280;20500;49.856;20.290;2023-02-28T06:06:57;100234.29;;;-3.93;69.80
34235;BME280;20500;49.856;20.290;2023-02-28T06:10:03;100234.89;;;-3.89;69.78
34235;BME280;20500;49.856;20.290;2023-02-28T06:13:09;100243.88;;;-3.88;69.85
34235;BME280;20500;49.856;20.290;2023-02-28T06:16:16;100245.38;;;-3.86;70.07
34235;BME280;20500;49.856;20.290;2023-02-28T06:19:20;100244.79;;;-3.80;70.21
34235;BME280;20500;49.856;20.290;2023-02-28T06:22:27;100248.66;;;-3.76;70.34
34235;BME280;20500;49.856;20.290;2023-02-28T06:25:32;100248.33;;;-3.71;70.27
34235;BME280;20500;49.856;20.290;2023-02-28T06:28:38;100249.13;;;-3.65;70.39
34235;BME280;20500;49.856;20.290;2023-02-28T06:31:44;100252.13;;;-3.60;70.16
34235;BME280;20500;49.856;20.290;2023-02-28T06:34:51;100254.46;;;-3.57;70.30
34235;BME280;20500;49.856;20.290;2023-02-28T06:37:58;100251.97;;;-3.52;70.38
34235;BME280;20500;49.856;20.290;2023-02-28T06:41:05;100254.80;;;-3.47;70.36
34235;BME280;20500;49.856;20.290;2023-02-28T06:44:15;100258.28;;;-3.42;70.59
34235;BME280;20500;49.856;20.290;2023-02-28T06:47:22;100254.94;;;-3.34;70.67
34235;BME280;20500;49.856;20.290;2023-02-28T06:50:26;100256.91;;;-3.26;70.88
34235;BME280;20500;49.856;20.290;2023-02-28T06:53:32;100260.40;;;-3.17;70.89
34235;BME280;20500;49.856;20.290;2023-02-28T06:56:39;100261.45;;;-3.08;70.66
34235;BME280;20500;49.856;20.290;2023-02-28T06:59:45;100263.11;;;-3.02;70.81
34235;BME280;20500;49.856;20.290;2023-02-28T07:02:50;100262.58;;;-2.93;70.81
34235;BME280;20500;49.856;20.290;2023-02-28T07:05:58;100263.60;;;-2.84;70.93
34235;BME280;20500;49.856;20.290;2023-02-28T07:09:03;100262.54;;;-2.77;70.90
34235;BME280;20500;49.856;20.290;2023-02-28T07:12:10;100264.83;;;-2.72;70.90
34235;BME280;20500;49.856;20.290;2023-02-28T07:15:14;100263.12;;;-2.70;70.90
34235;BME280;20500;49.856;20.290;2023-02-28T07:18:20;100266.77;;;-2.68;70.92
34235;BME280;20500;49.856;20.290;2023-02-28T07:21:27;100266.02;;;-2.63;70.95
34235;BME280;20500;49.856;20.290;2023-02-28T07:24:34;100268.67;;;-2.55;71.21
34235;BME280;20500;49.856;20.290;2023-02-28T07:27:40;100269.64;;;-2.45;71.40
34235;BME280;20500;49.856;20.290;2023-02-28T07:30:46;100271.73;;;-2.33;71.41
34235;BME280;20500;49.856;20.290;2023-02-28T07:33:53;100274.59;;;-2.22;71.63
34235;BME280;20500;49.856;20.290;2023-02-28T07:37:01;100270.58;;;-2.08;71.51
34235;BME280;20500;49.856;20.290;2023-02-28T07:40:12;100268.98;;;-1.97;71.55
34235;BME280;20500;49.856;20.290;2023-02-28T07:43:18;100268.48;;;-1.80;71.63
34235;BME280;20500;49.856;20.290;2023-02-28T07:46:25;100271.64;;;-1.64;71.66
34235;BME280;20500;49.856;20.290;2023-02-28T07:49:34;100269.23;;;-1.52;71.12
34235;BME280;20500;49.856;20.290;2023-02-28T07:52:41;100274.52;;;-1.51;70.37
34235;BME280;20500;49.856;20.290;2023-02-28T07:55:47;100270.19;;;-1.53;70.32
34235;BME280;20500;49.856;20.290;2023-02-28T07:58:54;100268.36;;;-1.48;70.37
34235;BME280;20500;49.856;20.290;2023-02-28T08:01:58;100268.65;;;-1.39;70.43
34235;BME280;20500;49.856;20.290;2023-02-28T08:05:06;100264.73;;;-1.36;70.24
34235;BME280;20500;49.856;20.290;2023-02-28T08:08:13;100263.41;;;-1.31;70.29
34235;BME280;20500;49.856;20.290;2023-02-28T08:11:19;100265.06;;;-1.25;70.18
34235;BME280;20500;49.856;20.290;2023-02-28T08:14:25;100262.96;;;-1.22;69.81
34235;BME280;20500;49.856;20.290;2023-02-28T08:17:30;100263.53;;;-1.23;69.78
34235;BME280;20500;49.856;20.290;2023-02-28T08:20:39;100260.56;;;-1.17;69.74
34235;BME280;20500;49.856;20.290;2023-02-28T08:23:43;100265.23;;;-1.08;69.54
34235;BME280;20500;49.856;20.290;2023-02-28T08:26:50;100271.78;;;-1.04;69.48
34235;BME280;20500;49.856;20.290;2023-02-28T08:29:54;100269.30;;;-1.04;69.33
34235;BME280;20500;49.856;20.290;2023-02-28T08:33:01;100270.31;;;-0.99;69.27
34235;BME280;20500;49.856;20.290;2023-02-28T08:36:08;100272.01;;;-0.94;69.05
34235;BME280;20500;49.856;20.290;2023-02-28T08:39:15;100277.78;;;-0.92;68.95
34235;BME280;20500;49.856;20.290;2023-02-28T08:42:22;100277.91;;;-0.94;68.92
34235;BME280;20500;49.856;20.290;2023-02-28T08:45:28;100269.91;;;-0.94;68.74
34235;BME280;20500;49.856;20.290;2023-02-28T08:48:36;100272.43;;;-0.92;68.53
34235;BME280;20500;49.856;20.290;2023-02-28T08:51:43;100271.77;;;-0.86;68.64
34235;BME280;20500;49.856;20.290;2023-02-28T08:54:48;100272.17;;;-0.80;68.66
34235;BME280;20500;49.856;20.290;2023-02-28T08:57:54;100271.85;;;-0.74;68.69
34235;BME280;20500;49.856;20.290;2023-02-28T09:00:59;100269.48;;;-0.72;68.37
34235;BME280;20500;49.856;20.290;2023-02-28T09:04:05;100267.34;;;-0.69;68.36
34235;BME280;20500;49.856;20.290;2023-02-28T09:07:13;100268.11;;;-0.58;68.31
34235;BME280;20500;49.856;20.290;2023-02-28T09:10:18;100266.89;;;-0.44;68.32
34235;BME280;20500;49.856;20.290;2023-02-28T09:13:24;100260.65;;;-0.35;68.22
34235;BME280;20500;49.856;20.290;2023-02-28T09:16:31;100261.52;;;-0.25;68.19
34235;BME280;20500;49.856;20.290;2023-02-28T09:19:38;100263.52;;;-0.19;67.99
34235;BME280;20500;49.856;20.290;2023-02-28T09:22:43;100261.22;;;-0.10;67.89
34235;BME280;20500;49.856;20.290;2023-02-28T09:25:51;100257.48;;;-0.07;67.82
34235;BME280;20500;49.856;20.290;2023-02-28T09:28:58;100256.48;;;-0.05;67.91
34235;BME280;20500;49.856;20.290;2023-02-28T09:32:05;100254.69;;;-0.01;67.55
34235;BME280;20500;49.856;20.290;2023-02-28T09:35:11;100254.70;;;0.05;67.35
34235;BME280;20500;49.856;20.290;2023-02-28T09:38:21;100250.66;;;0.07;67.09
34235;BME280;20500;49.856;20.290;2023-02-28T09:41:26;100252.33;;;0.12;67.09
34235;BME280;20500;49.856;20.290;2023-02-28T09:44:38;100254.77;;;0.20;66.83
34235;BME280;20500;49.856;20.290;2023-02-28T09:47:49;100253.95;;;0.31;66.92
34235;BME280;20500;49.856;20.290;2023-02-28T09:51:02;100249.70;;;0.42;67.00
34235;BME280;20500;49.856;20.290;2023-02-28T09:54:13;100250.00;;;0.53;66.94
34235;BME280;20500;49.856;20.290;2023-02-28T09:57:29;100250.80;;;0.63;66.84
34235;BME280;20500;49.856;20.290;2023-02-28T10:00:41;100252.33;;;0.67;66.46
34235;BME280;20500;49.856;20.290;2023-02-28T10:03:54;100250.72;;;0.71;66.35
34235;BME280;20500;49.856;20.290;2023-02-28T10:07:06;100246.92;;;0.81;66.40
34235;BME280;20500;49.856;20.290;2023-02-28T10:10:25;100244.13;;;0.88;66.37
34235;BME280;20500;49.856;20.290;2023-02-28T10:13:36;100244.38;;;0.84;66.33
34235;BME280;20500;49.856;20.290;2023-02-28T10:16:45;100243.39;;;0.77;65.81
34235;BME280;20500;49.856;20.290;2023-02-28T10:20:01;100242.97;;;0.75;65.69
34235;BME280;20500;49.856;20.290;2023-02-28T10:23:16;100240.97;;;0.75;65.56
34235;BME280;20500;49.856;20.290;2023-02-28T10:26:27;100241.36;;;0.81;65.45
34235;BME280;20500;49.856;20.290;2023-02-28T10:29:35;100240.02;;;0.82;65.30
34235;BME280;20500;49.856;20.290;2023-02-28T10:32:40;100233.91;;;0.86;65.41
34235;BME280;20500;49.856;20.290;2023-02-28T10:35:48;100229.09;;;0.95;65.62
34235;BME280;20500;49.856;20.290;2023-02-28T10:38:54;100226.24;;;1.07;65.20
34235;BME280;20500;49.856;20.290;2023-02-28T10:42:01;100218.88;;;1.19;65.13
34235;BME280;20500;49.856;20.290;2023-02-28T10:45:14;100216.25;;;1.32;65.18
34235;BME280;20500;49.856;20.290;2023-02-28T10:48:32;100218.94;;;1.35;65.06
34235;BME280;20500;49.856;20.290;2023-02-28T10:51:40;100212.52;;;1.37;64.86
34235;BME280;20500;49.856;20.290;2023-02-28T10:54:47;100208.35;;;1.41;64.97
34235;BME280;20500;49.856;20.290;2023-02-28T10:57:53;100207.61;;;1.47;64.64
34235;BME280;20500;49.856;20.290;2023-02-28T11:01:00;100198.02;;;1.52;64.38
34235;BME280;20500;49.856;20.290;2023-02-28T11:04:18;100197.54;;;1.65;64.42
34235;BME280;20500;49.856;20.290;2023-02-28T11:07:27;100199.80;;;1.80;64.60
34235;BME280;20500;49.856;20.290;2023-02-28T11:10:48;100195.64;;;1.86;64.19
34235;BME280;20500;49.856;20.290;2023-02-28T11:13:56;100192.91;;;1.98;64.23
34235;BME280;20500;49.856;20.290;2023-02-28T11:17:13;100193.11;;;2.11;63.96
34235;BME280;20500;49.856;20.290;2023-02-28T11:20:21;100189.39;;;2.11;63.73
34235;BME280;20500;49.856;20.290;2023-02-28T11:23:31;100187.73;;;2.14;64.00
34235;BME280;20500;49.856;20.290;2023-02-28T11:26:43;100186.30;;;2.14;63.63
34235;BME280;20500;49.856;20.290;2023-02-28T11:29:50;100179.38;;;2.21;63.47
34235;BME280;20500;49.856;20.290;2023-02-28T11:32:57;100180.69;;;2.34;63.61
34235;BME280;20500;49.856;20.290;2023-02-28T11:36:11;100178.05;;;2.38;63.51
34235;BME280;20500;49.856;20.290;2023-02-28T11:39:19;100176.02;;;2.42;63.56
34235;BME280;20500;49.856;20.290;2023-02-28T11:42:57;100171.48;;;2.56;63.60
34235;BME280;20500;49.856;20.290;2023-02-28T11:46:18;100170.85;;;2.76;63.29
34235;BME280;20500;49.856;20.290;2023-02-28T11:49:34;100165.37;;;2.82;63.28
34235;BME280;20500;49.856;20.290;2023-02-28T11:52:48;100166.11;;;2.95;63.06
34235;BME280;20500;49.856;20.290;2023-02-28T11:56:00;100163.08;;;3.03;62.87
34235;BME280;20500;49.856;20.290;2023-02-28T11:59:26;100163.77;;;3.00;62.72
34235;BME280;20500;49.856;20.290;2023-02-28T12:02:40;100162.89;;;3.03;62.71
34235;BME280;20500;49.856;20.290;2023-02-28T12:05:57;100158.97;;;3.12;62.36
34235;BME280;20500;49.856;20.290;2023-02-28T12:09:18;100156.71;;;3.24;62.51
34235;BME280;20500;49.856;20.290;2023-02-28T12:12:35;100167.41;;;3.25;62.26
34235;BME280;20500;49.856;20.290;2023-02-28T12:16:03;100162.10;;;3.14;61.93
34235;BME280;20500;49.856;20.290;2023-02-28T12:19:22;100157.56;;;3.10;62.15
34235;BME280;20500;49.856;20.290;2023-02-28T12:22:32;100153.64;;;3.12;61.88
34235;BME280;20500;49.856;20.290;2023-02-28T12:25:56;100156.34;;;3.19;61.73
34235;BME280;20500;49.856;20.290;2023-02-28T12:29:10;100159.11;;;3.24;61.80
34235;BME280;20500;49.856;20.290;2023-02-28T12:32:21;100158.41;;;3.18;61.48
34235;BME280;20500;49.856;20.290;2023-02-28T12:35:34;100156.18;;;3.21;61.58
34235;BME280;20500;49.856;20.290;2023-02-28T12:38:45;100151.14;;;3.34;61.47
34235;BME280;20500;49.856;20.290;2023-02-28T12:41:56;100149.91;;;3.54;61.46
34235;BME280;20500;49.856;20.290;2023-02-28T12:45:10;100150.95;;;3.67;61.25
34235;BME280;20500;49.856;20.290;2023-02-28T12:48:24;100149.70;;;3.62;60.94
34235;BME280;20500;49.856;20.290;2023-02-28T12:51:32;100147.40;;;3.64;61.03
34235;BME280;20500;49.856;20.290;2023-02-28T12:54:46;100144.35;;;3.74;60.98
34235;BME280;20500;49.856;20.290;2023-02-28T12:58:01;100145.59;;;3.81;60.65
34235;BME280;20500;49.856;20.290;2023-02-28T13:01:30;100144.02;;;3.83;60.58
34235;BME280;20500;49.856;20.290;2023-02-28T13:08:26;100136.16;;;3.82;60.55
34235;BME280;20500;49.856;20.290;2023-02-28T13:11:41;100134.91;;;3.90;60.69
34235;BME280;20500;49.856;20.290;2023-02-28T13:14:48;100134.99;;;4.03;60.56
34235;BME280;20500;49.856;20.290;2023-02-28T13:17:56;100131.08;;;4.05;60.46
34235;BME280;20500;49.856;20.290;2023-02-28T13:21:05;100123.61;;;4.04;60.43
34235;BME280;20500;49.856;20.290;2023-02-28T13:24:13;100125.35;;;4.07;60.35
34235;BME280;20500;49.856;20.290;2023-02-28T13:27:40;100118.84;;;3.96;60.07
34235;BME280;20500;49.856;20.290;2023-02-28T13:31:07;100113.88;;;3.87;59.93
34235;BME280;20500;49.856;20.290;2023-02-28T13:34:17;100111.20;;;3.87;59.92
34235;BME280;20500;49.856;20.290;2023-02-28T13:37:38;100105.09;;;3.95;59.88
34235;BME280;20500;49.856;20.290;2023-02-28T13:40:48;100106.78;;;3.98;59.75
34235;BME280;20500;49.856;20.290;2023-02-28T13:44:11;100105.21;;;3.86;59.46
34235;BME280;20500;49.856;20.290;2023-02-28T13:47:27;100103.58;;;3.81;59.34
34235;BME280;20500;49.856;20.290;2023-02-28T13:50:36;100104.00;;;3.78;59.35
34235;BME280;20500;49.856;20.290;2023-02-28T13:53:59;100093.39;;;3.85;59.52
34235;BME280;20500;49.856;20.290;2023-02-28T13:57:23;100091.23;;;4.00;59.46
34235;BME280;20500;49.856;20.290;2023-02-28T14:00:47;100088.80;;;4.03;58.96
34235;BME280;20500;49.856;20.290;2023-02-28T14:04:14;100086.68;;;3.96;58.69
34235;BME280;20500;49.856;20.290;2023-02-28T14:07:28;100084.09;;;3.87;58.69
34235;BME280;20500;49.856;20.290;2023-02-28T14:10:44;100081.09;;;3.84;58.78
34235;BME280;20500;49.856;20.290;2023-02-28T14:13:51;100074.23;;;3.80;58.88
34235;BME280;20500;49.856;20.290;2023-02-28T14:16:59;100072.47;;;3.75;58.75
34235;BME280;20500;49.856;20.290;2023-02-28T14:20:12;100071.90;;;3.70;58.59
34235;BME280;20500;49.856;20.290;2023-02-28T14:23:31;100078.64;;;3.64;58.59
34235;BME280;20500;49.856;20.290;2023-02-28T14:26:55;100076.39;;;3.48;58.56
34235;BME280;20500;49.856;20.290;2023-02-28T14:30:15;100078.38;;;3.38;58.24
34235;BME280;20500;49.856;20.290;2023-02-28T14:33:34;100073.66;;;3.41;58.19
34235;BME280;20500;49.856;20.290;2023-02-28T14:36:44;100070.08;;;3.44;58.10
34235;BME280;20500;49.856;20.290;2023-02-28T14:39:51;100068.91;;;3.45;58.21
34235;BME280;20500;49.856;20.290;2023-02-28T14:42:59;100069.20;;;3.46;58.39
34235;BME280;20500;49.856;20.290;2023-02-28T14:46:07;100075.58;;;3.42;58.08
34235;BME280;20500;49.856;20.290;2023-02-28T14:49:19;100076.60;;;3.38;58.18
34235;BME280;20500;49.856;20.290;2023-02-28T14:52:28;100076.91;;;3.29;57.95
34235;BME280;20500;49.856;20.290;2023-02-28T14:55:36;100076.98;;;3.23;58.02
34235;BME280;20500;49.856;20.290;2023-02-28T14:58:53;100074.59;;;3.24;57.92
34235;BME280;20500;49.856;20.290;2023-02-28T15:02:22;100074.19;;;3.19;57.62
34235;BME280;20500;49.856;20.290;2023-02-28T15:05:31;100073.60;;;3.10;57.65
34235;BME280;20500;49.856;20.290;2023-02-28T15:08:38;100075.63;;;3.07;57.62
34235;BME280;20500;49.856;20.290;2023-02-28T15:11:48;100078.34;;;3.04;57.54
34235;BME280;20500;49.856;20.290;2023-02-28T15:14:55;100075.42;;;3.00;57.57
34235;BME280;20500;49.856;20.290;2023-02-28T15:18:00;100076.05;;;2.96;57.51
34235;BME280;20500;49.856;20.290;2023-02-28T15:21:13;100076.95;;;2.91;57.63
34235;BME280;20500;49.856;20.290;2023-02-28T15:24:34;100080.23;;;2.77;57.66
34235;BME280;20500;49.856;20.290;2023-02-28T15:27:45;100080.88;;;2.61;57.64
34235;BME280;20500;49.856;20.290;2023-02-28T15:30:55;100077.86;;;2.47;57.69
34235;BME280;20500;49.856;20.290;2023-02-28T15:34:05;100074.06;;;2.34;57.62
34235;BME280;20500;49.856;20.290;2023-02-28T15:37:39;100076.31;;;2.25;57.66
34235;BME280;20500;49.856;20.290;2023-02-28T15:40:49;100078.92;;;2.15;57.53
34235;BME280;20500;49.856;20.290;2023-02-28T15:44:23;100080.82;;;2.06;57.42
34235;BME280;20500;49.856;20.290;2023-02-28T15:47:32;100081.22;;;1.95;57.39
34235;BME280;20500;49.856;20.290;2023-02-28T15:50:39;100080.94;;;1.86;57.27
34235;BME280;20500;49.856;20.290;2023-02-28T15:53:50;100083.33;;;1.77;57.30
34235;BME280;20500;49.856;20.290;2023-02-28T15:57:00;100080.05;;;1.67;57.39
34235;BME280;20500;49.856;20.290;2023-02-28T16:00:13;100084.55;;;1.58;57.33
34235;BME280;20500;49.856;20.290;2023-02-28T16:03:32;100082.89;;;1.48;57.36
34235;BME280;20500;49.856;20.290;2023-02-28T16:06:42;100084.30;;;1.40;57.40
34235;BME280;20500;49.856;20.290;2023-02-28T16:09:49;100091.05;;;1.32;57.28
34235;BME280;20500;49.856;20.290;2023-02-28T16:12:56;100094.95;;;1.25;57.38
34235;BME280;20500;49.856;20.290;2023-02-28T16:16:03;100096.77;;;1.18;57.41
34235;BME280;20500;49.856;20.290;2023-02-28T16:19:10;100094.96;;;1.13;57.42
34235;BME280;20500;49.856;20.290;2023-02-28T16:22:16;100098.91;;;1.07;57.34
34235;BME280;20500;49.856;20.290;2023-02-28T16:25:26;100100.08;;;1.00;57.55
34235;BME280;20500;49.856;20.290;2023-02-28T16:28:36;100100.81;;;0.91;57.61
34235;BME280;20500;49.856;20.290;2023-02-28T16:31:44;100108.02;;;0.85;57.63
34235;BME280;20500;49.856;20.290;2023-02-28T16:34:50;100109.21;;;0.77;57.58